Memmingen Allgau Airport EDJA

Flugplatz Daten

Name: Memmingen Allgau Airport

Ident: EDJA

Lat: 47,98880005

Long: 10,23950005

Platzhöhe: 2077 ft

IataCode: FMM

City: Memmingen

Metar

2021/10/20 11:20
EDJA 201120Z 22016KT CAVOK 17/09 Q1016

Taf

Gewünschte Webcam nicht vorhanden? Dann fügen Sie eine hinzu. Sie wird dann so schnell wie möglich freigeschaltet
Url: Title: